createdAt,value
2023-05-05T01:31:18.482Z,48.58
2023-05-05T01:34:09.303Z,48.17
2023-05-05T01:36:42.642Z,47.93
2023-05-05T01:39:33.231Z,47.82
2023-05-05T01:42:08.120Z,47.43
2023-05-05T01:44:56.977Z,47.34
2023-05-05T01:47:26.724Z,47.10
2023-05-05T01:49:57.404Z,46.67
2023-05-05T01:52:28.429Z,46.51
2023-05-05T01:54:59.245Z,46.10
2023-05-05T01:57:47.196Z,45.71
2023-05-05T02:00:18.462Z,45.59
2023-05-05T02:02:49.906Z,45.57
2023-05-05T02:05:26.388Z,45.38
2023-05-05T02:08:15.655Z,45.55
2023-05-05T02:10:50.890Z,45.22
2023-05-05T02:13:24.093Z,45.31
2023-05-05T02:16:12.123Z,45.09
2023-05-05T02:18:42.537Z,44.92
2023-05-05T02:21:14.714Z,44.65
2023-05-05T02:23:43.998Z,44.38
2023-05-05T02:26:18.048Z,44.01
2023-05-05T02:28:53.533Z,43.93
2023-05-05T02:31:25.430Z,44.00
2023-05-05T02:33:58.074Z,43.93
2023-05-05T02:36:31.802Z,43.81
2023-05-05T02:39:05.107Z,43.44
2023-05-05T02:41:36.603Z,43.06
2023-05-05T02:44:43.024Z,43.27
2023-05-05T02:47:12.210Z,42.65
2023-05-05T02:49:42.017Z,42.75
2023-05-05T02:52:12.906Z,42.57
2023-05-05T02:54:42.224Z,42.40
2023-05-05T02:57:15.512Z,42.35
2023-05-05T02:59:55.084Z,42.00
2023-05-05T03:02:45.016Z,42.13
2023-05-05T03:05:33.472Z,42.12
2023-05-05T03:08:06.409Z,42.12
2023-05-05T03:10:42.040Z,41.88
2023-05-05T03:13:13.725Z,41.91
2023-05-05T03:15:48.446Z,41.69
2023-05-05T03:18:36.278Z,41.83
2023-05-05T03:21:23.855Z,42.01
2023-05-05T03:23:54.592Z,41.88
2023-05-05T03:26:25.054Z,41.85
2023-05-05T03:29:12.782Z,41.97
2023-05-05T03:31:59.337Z,41.79
2023-05-05T03:34:47.101Z,41.47
2023-05-05T03:37:16.366Z,41.55
2023-05-05T03:39:47.196Z,41.32
2023-05-05T03:42:34.639Z,41.02
2023-05-05T03:45:03.891Z,40.89
2023-05-05T03:47:34.619Z,40.73
2023-05-05T03:50:03.774Z,40.95
2023-05-05T03:52:32.965Z,40.78
2023-05-05T03:55:03.612Z,40.26
2023-05-05T03:57:34.745Z,39.80
2023-05-05T04:00:03.990Z,39.63
2023-05-05T04:02:39.023Z,39.68
2023-05-05T04:05:09.821Z,39.77
2023-05-05T04:07:38.983Z,39.65
2023-05-05T04:10:11.097Z,39.65
2023-05-05T04:12:59.018Z,39.30
2023-05-05T04:15:30.400Z,39.03
2023-05-05T04:18:00.131Z,38.88
2023-05-05T04:20:31.027Z,38.77
2023-05-05T04:23:00.405Z,38.44
2023-05-05T04:25:31.099Z,38.39
2023-05-05T04:28:00.222Z,38.80
2023-05-05T04:30:29.473Z,38.79
2023-05-05T04:33:15.605Z,38.45
2023-05-05T04:36:02.714Z,38.30
2023-05-05T04:38:31.977Z,38.49
2023-05-05T04:41:02.574Z,38.49
2023-05-05T04:43:31.738Z,38.10
2023-05-05T04:46:19.160Z,38.09
2023-05-05T04:49:23.830Z,38.22
2023-05-05T04:51:52.501Z,38.65
2023-05-05T04:54:21.837Z,37.87
2023-05-05T04:56:52.522Z,37.67
2023-05-05T04:59:56.870Z,37.70
2023-05-05T05:02:26.125Z,37.91
2023-05-05T05:04:55.585Z,37.80
2023-05-05T05:07:43.029Z,37.54
2023-05-05T05:10:12.729Z,37.65
2023-05-05T05:13:01.894Z,37.49
2023-05-05T05:15:31.105Z,37.50
2023-05-05T05:18:18.454Z,37.53
2023-05-05T05:20:48.028Z,37.72
2023-05-05T05:23:17.127Z,37.90
2023-05-05T05:25:46.621Z,37.96
2023-05-05T05:28:17.242Z,37.84
2023-05-05T05:30:46.505Z,37.69
2023-05-05T05:33:32.621Z,37.56
2023-05-05T05:36:01.910Z,37.44
2023-05-05T05:38:31.103Z,37.54
2023-05-05T05:41:17.065Z,37.42
2023-05-05T05:43:47.882Z,37.15
2023-05-05T05:46:35.353Z,37.11
2023-05-05T05:49:22.533Z,37.05
2023-05-05T05:51:51.747Z,36.89
2023-05-05T05:54:39.440Z,36.78
2023-05-05T05:57:08.790Z,36.70
2023-05-05T05:59:45.140Z,36.50
2023-05-05T06:02:17.660Z,36.58
2023-05-05T06:05:05.057Z,37.10
2023-05-05T06:07:35.855Z,37.35
2023-05-05T06:10:22.778Z,37.46
2023-05-05T06:12:55.590Z,37.40
2023-05-05T06:15:26.464Z,37.14
2023-05-05T06:17:55.717Z,37.43
2023-05-05T06:20:25.464Z,36.88
2023-05-05T06:22:55.021Z,36.87
2023-05-05T06:25:24.248Z,36.53
2023-05-05T06:27:53.684Z,36.69
2023-05-05T06:30:22.934Z,36.09
2023-05-05T06:32:54.861Z,35.67
2023-05-05T06:35:24.817Z,35.71
2023-05-05T06:37:54.061Z,35.62
2023-05-05T06:40:32.334Z,35.44
2023-05-05T06:43:01.547Z,35.44
2023-05-05T06:46:06.463Z,35.53
2023-05-05T06:48:37.356Z,35.36
2023-05-05T06:51:06.585Z,35.17
2023-05-05T06:53:53.766Z,34.60
2023-05-05T06:56:22.914Z,34.44
2023-05-05T06:58:52.294Z,34.33
2023-05-05T07:01:39.283Z,34.35
2023-05-05T07:04:09.975Z,33.99
2023-05-05T07:06:58.827Z,33.67
2023-05-05T07:09:28.128Z,33.27
2023-05-05T07:12:32.558Z,33.44
2023-05-05T07:15:07.044Z,33.86
2023-05-05T07:18:02.360Z,33.48
2023-05-05T07:20:33.079Z,33.49
2023-05-05T07:23:02.261Z,33.60
2023-05-05T07:25:31.465Z,33.46
2023-05-05T07:28:00.829Z,33.25
2023-05-05T07:30:30.065Z,33.31
2023-05-05T07:32:59.297Z,33.58
2023-05-05T07:35:29.075Z,33.60
2023-05-05T07:37:59.782Z,33.46
2023-05-05T07:40:29.022Z,33.31
2023-05-05T07:42:58.144Z,33.23
2023-05-05T07:45:29.356Z,32.87
2023-05-05T07:47:58.640Z,33.07
2023-05-05T07:50:28.086Z,32.85
2023-05-05T07:53:06.144Z,32.70
2023-05-05T07:55:44.181Z,32.64
2023-05-05T07:58:13.400Z,32.87
2023-05-05T08:00:44.260Z,32.74
2023-05-05T08:03:13.903Z,32.42
2023-05-05T08:06:00.026Z,32.11
2023-05-05T08:08:46.023Z,32.13
2023-05-05T08:11:35.298Z,32.00
2023-05-05T08:14:04.529Z,32.58
2023-05-05T08:16:34.017Z,32.62
2023-05-05T08:19:06.282Z,32.37
2023-05-05T08:21:39.071Z,32.29
